Time;durP1;ratioP1;P1;durP2;ratioP2;P2;SDS_P1;SDS_P2;PMS_P1;PMS_P2;Temp;Humidity;BMP_temperature;BMP_pressure;BME280_temperature;BME280_humidity;BME280_pressure;Samples;Min_cycle;Max_cycle;Signal;HPM_P1;HPM_P2
2024/02/22 00:02:29;;;;;;;22.30;15.80;;;;;;;3.98;91.50;99978.23;106389;1256;72769;-80
2024/02/22 00:04:57;;;;;;;25.50;16.00;;;;;;;3.98;92.90;99971.95;105908;1257;59645;-82
2024/02/22 00:07:24;;;;;;;21.20;15.80;;;;;;;3.91;91.41;99972.32;105805;1260;60123;-81
2024/02/22 00:09:53;;;;;;;20.90;14.70;;;;;;;3.87;91.36;99965.30;105790;1257;72329;-81
2024/02/22 00:12:20;;;;;;;20.80;14.20;;;;;;;3.88;88.90;99965.73;105761;1258;70807;-82
2024/02/22 00:14:48;;;;;;;15.20;12.10;;;;;;;3.89;88.71;99960.87;105882;1256;71423;-81
2024/02/22 00:17:15;;;;;;;18.40;13.30;;;;;;;3.86;88.32;99957.64;106767;1257;59821;-81
2024/02/22 00:19:43;;;;;;;19.40;13.20;;;;;;;3.83;89.83;99953.88;107268;1256;57901;-84
2024/02/22 00:22:10;;;;;;;19.80;13.10;;;;;;;3.86;90.03;99950.97;106209;1253;70925;-83
2024/02/22 00:24:38;;;;;;;20.20;13.50;;;;;;;3.90;90.72;99939.05;106125;1257;70094;-83
2024/02/22 00:27:05;;;;;;;20.40;13.20;;;;;;;3.87;89.62;99948.11;107621;1253;72481;-82
2024/02/22 00:29:33;;;;;;;19.60;12.90;;;;;;;3.81;89.10;99937.23;107423;1254;59593;-82
2024/02/22 00:32:00;;;;;;;16.10;12.10;;;;;;;3.83;88.67;99940.33;106930;1257;60028;-79
2024/02/22 00:34:27;;;;;;;22.10;13.70;;;;;;;3.87;87.77;99933.70;108470;1253;72939;-79
2024/02/22 00:36:55;;;;;;;18.10;12.00;;;;;;;3.86;87.91;99934.17;109082;1253;70115;-79
2024/02/22 00:39:24;;;;;;;18.60;11.30;;;;;;;3.82;88.69;99932.36;108595;1253;71393;-80
2024/02/22 00:41:51;;;;;;;17.40;12.10;;;;;;;3.86;87.71;99932.39;107412;1253;61790;-77
2024/02/22 00:44:18;;;;;;;16.70;11.10;;;;;;;3.91;87.00;99929.88;108147;1253;59634;-79
2024/02/22 00:46:46;;;;;;;15.80;11.40;;;;;;;3.91;88.75;99924.30;108826;1252;71893;-80
2024/02/22 00:49:13;;;;;;;16.70;11.10;;;;;;;3.88;88.25;99923.00;107767;1257;68977;-80
2024/02/22 00:51:41;;;;;;;14.10;9.40;;;;;;;3.89;88.07;99917.14;106538;1254;71701;-79
2024/02/22 00:54:09;;;;;;;17.00;10.50;;;;;;;3.97;89.89;99916.27;106939;1252;59624;-80
2024/02/22 00:56:38;;;;;;;13.80;10.00;;;;;;;3.98;90.20;99913.79;107443;1255;59301;-81
2024/02/22 00:59:06;;;;;;;14.00;10.50;;;;;;;3.95;90.64;99911.57;105976;1253;71040;-78
2024/02/22 01:01:34;;;;;;;12.80;9.50;;;;;;;3.93;91.68;99915.56;105958;1257;69217;-79
2024/02/22 01:04:03;;;;;;;14.70;9.70;;;;;;;3.98;91.73;99915.20;106117;1253;71403;-81
2024/02/22 01:06:31;;;;;;;13.30;9.40;;;;;;;4.03;90.14;99915.31;105788;1257;59612;-77
2024/02/22 01:08:58;;;;;;;16.50;11.10;;;;;;;4.00;89.99;99908.02;105855;1253;60418;-82
2024/02/22 01:11:26;;;;;;;16.00;10.90;;;;;;;3.94;90.54;99910.23;105972;1257;72797;-80
2024/02/22 01:13:53;;;;;;;15.90;11.00;;;;;;;3.92;90.27;99907.75;105823;1253;70169;-77
2024/02/22 01:16:21;;;;;;;15.90;10.90;;;;;;;3.98;90.21;99910.08;105779;1253;72765;-79
2024/02/22 01:18:48;;;;;;;19.20;11.50;;;;;;;3.98;88.90;99906.81;105980;1257;59776;-79
2024/02/22 01:21:18;;;;;;;16.00;11.80;;;;;;;3.92;87.50;99909.69;105971;1254;59533;-79
2024/02/22 01:23:45;;;;;;;19.90;12.30;;;;;;;3.92;89.71;99904.39;106459;1254;71927;-80
2024/02/22 01:26:13;;;;;;;18.30;12.60;;;;;;;3.99;90.36;99902.46;106505;1256;69169;-80
2024/02/22 01:28:40;;;;;;;20.50;12.50;;;;;;;3.99;89.77;99898.44;106383;1253;72670;-80
2024/02/22 01:31:08;;;;;;;17.20;12.30;;;;;;;3.96;89.43;99890.99;106911;1257;59615;-80
2024/02/22 01:33:36;;;;;;;16.80;12.00;;;;;;;3.94;91.18;99890.94;109003;1252;60027;-79
2024/02/22 01:36:03;;;;;;;16.40;10.70;;;;;;;4.01;91.10;99885.48;109211;1253;71815;-80
2024/02/22 01:38:31;;;;;;;17.80;12.40;;;;;;;4.11;92.50;99883.11;108199;1253;69289;-80
2024/02/22 01:40:58;;;;;;;13.80;11.40;;;;;;;4.12;92.14;99878.08;106775;1255;71345;-80
2024/02/22 01:43:26;;;;;;;17.40;12.50;;;;;;;4.12;92.76;99875.15;106747;1257;60012;-79
2024/02/22 01:45:54;;;;;;;16.10;11.80;;;;;;;4.11;92.28;99874.13;105969;1253;59741;-81
2024/02/22 01:48:22;;;;;;;14.90;11.10;;;;;;;4.13;92.07;99870.30;106220;1253;71761;-81
2024/02/22 01:50:52;;;;;;;14.60;10.60;;;;;;;4.21;92.74;99874.78;106358;1253;69513;-79
2024/02/22 01:53:25;;;;;;;18.00;12.00;;;;;;;4.23;91.57;99881.45;107196;1253;71486;-79
2024/02/22 01:55:57;;;;;;;19.40;13.10;;;;;;;4.19;91.48;99884.09;107175;1257;59542;-80
2024/02/22 01:58:25;;;;;;;16.50;11.60;;;;;;;4.11;92.81;99879.77;106879;1252;59516;-79
2024/02/22 02:00:53;;;;;;;20.40;13.30;;;;;;;4.06;92.58;99877.19;107417;1253;73587;-77
2024/02/22 02:03:20;;;;;;;15.60;11.70;;;;;;;4.05;92.65;99870.95;108009;1253;69196;-79
2024/02/22 02:05:48;;;;;;;14.60;11.70;;;;;;;4.12;91.94;99866.06;108237;1253;71112;-78
2024/02/22 02:08:15;;;;;;;18.20;11.60;;;;;;;4.14;91.71;99860.75;108485;1253;58795;-80
2024/02/22 02:10:43;;;;;;;15.80;11.50;;;;;;;4.13;93.11;99858.71;108742;1252;57826;-79
2024/02/22 02:13:10;;;;;;;15.00;11.50;;;;;;;4.12;93.69;99857.41;108520;1253;71793;-77
2024/02/22 02:15:38;;;;;;;16.50;10.90;;;;;;;4.11;93.44;99856.14;106917;1253;69977;-77
2024/02/22 02:18:05;;;;;;;13.50;10.10;;;;;;;4.15;93.06;99856.13;105890;1257;72433;-76
2024/02/22 02:20:40;;;;;;;14.70;10.50;;;;;;;4.20;93.70;99847.90;105945;1257;59765;-77
2024/02/22 02:23:19;;;;;;;13.60;11.10;;;;;;;4.14;92.90;99850.24;106115;1256;59545;-75
2024/02/22 02:25:47;;;;;;;15.30;10.90;;;;;;;4.09;93.97;99850.48;105952;1253;71781;-76
2024/02/22 02:28:15;;;;;;;14.30;10.00;;;;;;;4.06;94.17;99847.89;106040;1253;68224;-77
2024/02/22 02:30:42;;;;;;;13.20;10.70;;;;;;;4.10;94.00;99845.98;106701;1253;71313;-75
2024/02/22 02:33:09;;;;;;;13.00;9.00;;;;;;;4.09;93.48;99848.86;109304;1252;59086;-78
2024/02/22 02:35:40;;;;;;;12.00;9.40;;;;;;;4.07;94.21;99850.82;109223;1252;58761;-78
2024/02/22 02:38:10;;;;;;;15.70;10.70;;;;;;;4.06;94.13;99848.60;108631;1252;71782;-75
2024/02/22 02:40:38;;;;;;;12.40;10.10;;;;;;;4.14;93.79;99848.89;106224;1253;69975;-78
2024/02/22 02:43:06;;;;;;;11.60;9.80;;;;;;;4.16;92.58;99850.29;106274;1253;72674;-78
2024/02/22 02:45:34;;;;;;;14.90;9.90;;;;;;;4.12;92.39;99849.02;105980;1253;59674;-78
2024/02/22 02:48:01;;;;;;;15.80;10.70;;;;;;;4.07;93.02;99843.07;105798;1254;59842;-77
2024/02/22 02:50:28;;;;;;;14.20;10.00;;;;;;;4.08;93.22;99839.34;105927;1253;70823;-77
2024/02/22 02:52:56;;;;;;;14.70;10.10;;;;;;;4.10;93.63;99839.34;105975;1253;70089;-77
2024/02/22 02:55:24;;;;;;;14.10;11.00;;;;;;;4.08;95.21;99832.52;105820;1253;71313;-77
2024/02/22 02:57:52;;;;;;;14.80;10.40;;;;;;;4.02;95.25;99836.70;105903;1254;60068;-78
2024/02/22 03:00:20;;;;;;;14.00;10.50;;;;;;;3.97;94.46;99833.45;105849;1253;59683;-77
2024/02/22 03:02:47;;;;;;;14.20;11.20;;;;;;;4.00;95.02;99834.78;105893;1253;72178;-77
2024/02/22 03:05:15;;;;;;;18.50;12.80;;;;;;;4.01;94.11;99827.96;105920;1254;70533;-78
2024/02/22 03:07:42;;;;;;;14.40;10.90;;;;;;;3.96;94.20;99831.36;105832;1253;71154;-77
2024/02/22 03:10:10;;;;;;;16.30;11.00;;;;;;;3.89;93.31;99824.21;105851;1253;59743;-77
2024/02/22 03:12:37;;;;;;;13.70;11.00;;;;;;;3.89;94.26;99827.86;105893;1253;59688;-77
2024/02/22 03:15:06;;;;;;;14.50;11.40;;;;;;;3.92;94.80;99826.73;105841;1253;73111;-79
2024/02/22 03:17:34;;;;;;;16.30;12.40;;;;;;;3.89;94.70;99826.71;106039;1257;70235;-77
2024/02/22 03:20:09;;;;;;;16.10;11.90;;;;;;;3.83;94.71;99826.27;106188;1257;72425;-78
2024/02/22 03:22:38;;;;;;;17.70;11.10;;;;;;;3.82;95.73;99817.48;106116;1253;59840;-77
2024/02/22 03:25:07;;;;;;;13.20;11.30;;;;;;;3.86;95.56;99816.96;106631;1253;59592;-77
2024/02/22 03:27:35;;;;;;;16.20;11.90;;;;;;;3.86;95.42;99817.66;106449;1260;73044;-76
2024/02/22 03:30:03;;;;;;;14.70;12.30;;;;;;;3.80;95.91;99819.34;108385;1253;69973;-78
2024/02/22 03:32:31;;;;;;;13.60;11.00;;;;;;;3.76;95.47;99821.45;108731;1253;72793;-78
2024/02/22 03:34:58;;;;;;;14.30;10.60;;;;;;;3.81;95.97;99819.31;107492;1253;60054;-78
2024/02/22 03:37:26;;;;;;;14.20;11.20;;;;;;;3.85;96.36;99821.38;106431;1256;59634;-77
2024/02/22 03:39:53;;;;;;;13.60;11.70;;;;;;;3.82;96.12;99820.02;106442;1255;73086;-78
2024/02/22 03:42:22;;;;;;;15.40;10.70;;;;;;;3.76;96.35;99817.58;105994;1257;70282;-78
2024/02/22 03:44:49;;;;;;;15.30;11.90;;;;;;;3.75;96.53;99814.66;105932;1253;72680;-80
2024/02/22 03:47:16;;;;;;;17.70;11.20;;;;;;;3.80;97.11;99815.16;106114;1253;61276;-79
2024/02/22 03:49:44;;;;;;;14.00;11.80;;;;;;;3.78;96.69;99813.06;106079;1257;60641;-80
2024/02/22 03:52:13;;;;;;;14.50;11.50;;;;;;;3.73;96.94;99811.14;105863;1253;74005;-78
2024/02/22 03:54:41;;;;;;;18.00;11.90;;;;;;;3.70;98.10;99811.39;106555;1253;70484;-77
2024/02/22 03:57:08;;;;;;;14.40;11.30;;;;;;;3.75;98.27;99816.92;105969;1253;71819;-79
2024/02/22 03:59:36;;;;;;;15.80;12.00;;;;;;;3.82;98.36;99812.23;105953;1253;60637;-80
2024/02/22 04:02:03;;;;;;;19.80;12.80;;;;;;;3.80;98.29;99812.52;105937;1257;60539;-79
2024/02/22 04:04:31;;;;;;;19.50;13.90;;;;;;;3.78;98.90;99812.34;105935;1256;73889;-77
2024/02/22 04:06:58;;;;;;;16.60;13.10;;;;;;;3.76;99.20;99813.33;106013;1257;69092;-79
2024/02/22 04:09:26;;;;;;;17.40;12.80;;;;;;;3.82;98.79;99812.34;105837;1253;72707;-79
2024/02/22 04:11:53;;;;;;;19.30;14.60;;;;;;;3.89;99.00;99813.34;105880;1253;60292;-80
2024/02/22 04:14:21;;;;;;;18.00;13.90;;;;;;;3.87;99.14;99811.56;106029;1253;60555;-78
2024/02/22 04:16:48;;;;;;;20.20;15.00;;;;;;;3.83;99.57;99812.59;106494;1257;72943;-80
2024/02/22 04:19:15;;;;;;;18.90;13.70;;;;;;;3.83;99.45;99812.81;106291;1253;70423;-80
2024/02/22 04:21:46;;;;;;;17.10;13.70;;;;;;;3.89;99.24;99815.30;106733;1253;71401;-80
2024/02/22 04:24:13;;;;;;;17.50;13.80;;;;;;;3.93;99.40;99816.56;106195;1253;60572;-80
2024/02/22 04:26:50;;;;;;;19.80;13.90;;;;;;;3.91;99.78;99818.48;108123;1257;60321;-80
2024/02/22 04:29:18;;;;;;;14.90;12.50;;;;;;;3.89;99.83;99817.36;108410;1253;72593;-78
2024/02/22 04:31:46;;;;;;;22.40;15.20;;;;;;;3.95;99.55;99817.06;107208;1253;70117;-78
2024/02/22 04:34:14;;;;;;;20.30;14.90;;;;;;;3.98;98.98;99819.33;106504;1253;71488;-76
2024/02/22 04:36:41;;;;;;;18.90;14.40;;;;;;;3.92;99.57;99814.67;106313;1253;60525;-76
2024/02/22 04:39:13;;;;;;;20.10;14.70;;;;;;;3.86;99.96;99812.77;105789;1253;60652;-78
2024/02/22 04:41:41;;;;;;;18.00;13.80;;;;;;;3.90;100.00;99816.27;105960;1253;72633;-78
2024/02/22 04:44:09;;;;;;;19.30;15.10;;;;;;;3.94;100.00;99817.67;107126;1253;70294;-76
2024/02/22 04:46:37;;;;;;;18.10;14.30;;;;;;;3.92;100.00;99822.61;108667;1253;71418;-78
2024/02/22 04:49:04;;;;;;;20.10;16.00;;;;;;;3.89;100.00;99818.46;106920;1256;60406;-77
2024/02/22 04:51:33;;;;;;;23.20;14.90;;;;;;;3.94;100.00;99819.65;105934;1253;60483;-78
2024/02/22 04:54:00;;;;;;;20.50;16.60;;;;;;;4.01;100.00;99818.05;105954;1257;73862;-76
2024/02/22 04:56:28;;;;;;;23.00;15.60;;;;;;;4.02;100.00;99821.29;105890;1254;70295;-76
2024/02/22 04:58:56;;;;;;;21.50;16.90;;;;;;;3.98;100.00;99817.71;106087;1253;75524;-77
2024/02/22 05:01:24;;;;;;;23.30;16.20;;;;;;;3.95;100.00;99816.23;105799;1253;61236;-78
2024/02/22 05:03:52;;;;;;;19.00;15.40;;;;;;;3.97;100.00;99813.59;106058;1253;60592;-78
2024/02/22 05:06:20;;;;;;;20.40;16.50;;;;;;;4.02;100.00;99811.42;105913;1253;73896;-78
2024/02/22 05:08:48;;;;;;;23.80;18.00;;;;;;;3.98;100.00;99812.52;105991;1257;70095;-76
2024/02/22 05:11:16;;;;;;;21.70;16.40;;;;;;;3.91;100.00;99811.30;106055;1253;72713;-78
2024/02/22 05:13:44;;;;;;;24.80;17.10;;;;;;;3.87;100.00;99814.23;106008;1252;61225;-75
2024/02/22 05:16:12;;;;;;;23.70;18.10;;;;;;;3.90;100.00;99811.22;106028;1253;60543;-77
2024/02/22 05:18:40;;;;;;;22.70;17.20;;;;;;;3.88;100.00;99815.05;105968;1257;72644;-76
2024/02/22 05:21:08;;;;;;;23.00;18.10;;;;;;;3.80;100.00;99814.84;106587;1253;69192;-76
2024/02/22 05:23:35;;;;;;;26.20;19.00;;;;;;;3.73;100.00;99814.59;106160;1256;72935;-76
2024/02/22 05:26:03;;;;;;;27.90;18.50;;;;;;;3.77;100.00;99816.24;107199;1253;60948;-77
2024/02/22 05:28:30;;;;;;;25.20;18.00;;;;;;;3.81;100.00;99813.34;108769;1253;59189;-74
2024/02/22 05:30:59;;;;;;;23.50;19.10;;;;;;;3.78;100.00;99812.86;108025;1254;72567;-77
2024/02/22 05:33:27;;;;;;;25.00;18.70;;;;;;;3.73;100.00;99809.23;106274;1256;68208;-77
2024/02/22 05:35:55;;;;;;;21.60;17.00;;;;;;;3.72;100.00;99809.11;105969;1257;71426;-78
2024/02/22 05:38:22;;;;;;;24.50;18.70;;;;;;;3.78;100.00;99810.04;105893;1253;60774;-77
2024/02/22 05:40:50;;;;;;;23.90;18.40;;;;;;;3.82;100.00;99809.78;105912;1253;60464;-78
2024/02/22 05:43:18;;;;;;;25.20;19.50;;;;;;;3.78;100.00;99812.82;106197;1257;73761;-78
2024/02/22 05:45:46;;;;;;;21.30;16.80;;;;;;;3.74;100.00;99814.75;106076;1254;70237;-79
2024/02/22 05:48:14;;;;;;;24.10;17.90;;;;;;;3.80;100.00;99813.73;105917;1253;72499;-78
2024/02/22 05:50:42;;;;;;;27.60;19.80;;;;;;;3.85;100.00;99808.13;105874;1254;60546;-79
2024/02/22 05:53:12;;;;;;;26.80;19.70;;;;;;;3.83;100.00;99807.74;105978;1258;60404;-80
2024/02/22 05:55:39;;;;;;;26.20;19.00;;;;;;;3.80;100.00;99807.23;106124;1257;74096;-80
2024/02/22 05:58:07;;;;;;;25.20;19.00;;;;;;;3.87;100.00;99811.27;107662;1251;70627;-79
2024/02/22 06:00:36;;;;;;;29.80;20.20;;;;;;;3.92;100.00;99815.42;109063;1253;71440;-78
2024/02/22 06:03:05;;;;;;;30.80;20.30;;;;;;;3.91;100.00;99811.77;106752;1254;60493;-77
2024/02/22 06:05:37;;;;;;;29.10;20.40;;;;;;;3.89;100.00;99811.60;106896;1253;60507;-78
2024/02/22 06:08:04;;;;;;;23.90;17.90;;;;;;;3.93;100.00;99814.80;106419;1256;73900;-75
2024/02/22 06:10:32;;;;;;;26.70;19.40;;;;;;;4.00;100.00;99813.05;107508;1253;69240;-82
2024/02/22 06:13:00;;;;;;;27.00;20.60;;;;;;;3.98;100.00;99809.86;106910;1253;71379;-80
2024/02/22 06:15:28;;;;;;;25.40;19.40;;;;;;;3.94;100.00;99810.83;106398;1253;61631;-78
2024/02/22 06:17:55;;;;;;;25.30;18.60;;;;;;;3.98;100.00;99809.65;106230;1252;60616;-80
2024/02/22 06:20:25;;;;;;;25.60;19.90;;;;;;;4.03;100.00;99803.48;106826;1253;73901;-80
2024/02/22 06:22:52;;;;;;;25.60;18.90;;;;;;;4.00;100.00;99801.48;106535;1252;68898;-80
2024/02/22 06:25:20;;;;;;;28.20;18.80;;;;;;;4.01;100.00;99805.21;108929;1252;72666;-80
2024/02/22 06:27:47;;;;;;;23.90;18.50;;;;;;;4.08;100.00;99801.98;109024;1252;59250;-76
2024/02/22 06:30:15;;;;;;;25.80;20.10;;;;;;;4.09;100.00;99800.19;106932;1253;60535;-78
2024/02/22 06:32:43;;;;;;;25.30;19.10;;;;;;;4.05;100.00;99805.55;106674;1252;74729;-76
2024/02/22 06:35:10;;;;;;;27.40;18.90;;;;;;;4.10;100.00;99801.52;108268;1253;71032;-77
2024/02/22 06:37:38;;;;;;;27.80;19.80;;;;;;;4.16;100.00;99799.45;106285;1258;72767;-78
2024/02/22 06:40:07;;;;;;;26.30;19.80;;;;;;;4.14;100.00;99798.71;105954;1253;60483;-77
2024/02/22 06:42:35;;;;;;;27.10;19.00;;;;;;;4.09;100.00;99798.59;106445;1254;60381;-77
2024/02/22 06:45:03;;;;;;;27.50;20.50;;;;;;;4.13;100.00;99793.23;107525;1253;74321;-76
2024/02/22 06:47:30;;;;;;;24.10;18.40;;;;;;;4.20;100.00;99793.73;107941;1253;72195;-77
2024/02/22 06:49:57;;;;;;;25.50;18.80;;;;;;;4.21;100.00;99792.94;107860;1253;72066;-77
2024/02/22 06:52:25;;;;;;;25.60;19.70;;;;;;;4.19;100.00;99795.16;107977;1253;60528;-77
2024/02/22 06:54:52;;;;;;;23.90;17.80;;;;;;;4.22;100.00;99794.24;106820;1251;60439;-78
2024/02/22 06:57:20;;;;;;;26.80;19.00;;;;;;;4.29;100.00;99789.62;108585;1253;72551;-77
2024/02/22 06:59:47;;;;;;;23.50;18.60;;;;;;;4.33;99.94;99785.94;107426;1253;70537;-78
2024/02/22 07:02:15;;;;;;;26.70;19.60;;;;;;;4.31;100.00;99784.54;107826;1253;70901;-78
2024/02/22 07:04:45;;;;;;;25.60;18.50;;;;;;;4.30;100.00;99781.27;106797;1253;60398;-77
2024/02/22 07:07:13;;;;;;;23.50;18.80;;;;;;;4.38;100.00;99783.61;106245;1256;60298;-77
2024/02/22 07:09:41;;;;;;;28.80;19.40;;;;;;;4.46;99.96;99782.80;106274;1253;75049;-78
2024/02/22 07:12:08;;;;;;;24.50;19.20;;;;;;;4.46;99.70;99779.80;105832;1253;70703;-78
2024/02/22 07:14:36;;;;;;;24.60;18.50;;;;;;;4.43;99.85;99777.20;105879;1253;72597;-78
2024/02/22 07:17:04;;;;;;;24.10;18.90;;;;;;;4.47;100.00;99779.50;105824;1253;60887;-78
2024/02/22 07:19:31;;;;;;;25.30;19.00;;;;;;;4.55;99.90;99774.33;106212;1253;62703;-78
2024/02/22 07:21:59;;;;;;;28.30;19.00;;;;;;;4.55;99.83;99776.42;106721;1253;75991;-76
2024/02/22 07:24:27;;;;;;;27.30;20.10;;;;;;;4.54;99.94;99772.45;108783;1252;69192;-76
2024/02/22 07:26:54;;;;;;;26.50;19.10;;;;;;;4.63;100.00;99770.48;108307;1253;71668;-77
2024/02/22 07:29:23;;;;;;;26.20;19.60;;;;;;;4.70;99.96;99772.69;106154;1260;60429;-78
2024/02/22 07:31:51;;;;;;;31.70;21.00;;;;;;;4.69;98.97;99779.25;106434;1253;60343;-78
2024/02/22 07:34:19;;;;;;;27.60;20.10;;;;;;;4.68;99.68;99775.30;105882;1253;75325;-79
2024/02/22 07:36:46;;;;;;;24.70;20.40;;;;;;;4.75;99.31;99778.05;106156;1258;70313;-78
2024/02/22 07:39:14;;;;;;;26.80;20.30;;;;;;;4.80;98.40;99775.59;106112;1253;72970;-78
2024/02/22 07:41:43;;;;;;;29.10;21.50;;;;;;;4.78;98.45;99781.55;105968;1253;60486;-78
2024/02/22 07:44:11;;;;;;;27.40;19.50;;;;;;;4.75;99.09;99780.20;105882;1260;60416;-78
2024/02/22 07:46:39;;;;;;;32.20;21.10;;;;;;;4.80;98.79;99775.00;105990;1253;72488;-78
2024/02/22 07:49:07;;;;;;;27.30;19.90;;;;;;;4.86;97.38;99774.54;105992;1256;69373;-79
2024/02/22 07:51:34;;;;;;;29.50;21.30;;;;;;;4.88;98.57;99772.56;105976;1258;72769;-78
2024/02/22 07:54:19;;;;;;;27.00;19.10;;;;;;;4.88;99.67;99775.67;105959;1253;61952;-80
2024/02/22 07:56:47;;;;;;;25.30;20.60;;;;;;;5.00;99.11;99771.73;105910;1253;60438;-79
2024/02/22 07:59:14;;;;;;;25.10;21.10;;;;;;;5.13;99.37;99769.42;105941;1253;74873;-78
2024/02/22 08:01:42;;;;;;;27.30;21.00;;;;;;;5.17;99.60;99760.76;106024;1257;72494;-79
2024/02/22 08:04:10;;;;;;;26.30;21.50;;;;;;;5.23;100.00;99763.60;106073;1253;73419;-80
2024/02/22 08:06:37;;;;;;;28.70;21.30;;;;;;;5.31;99.75;99758.56;106149;1257;62721;-78
2024/02/22 08:09:05;;;;;;;26.10;20.70;;;;;;;5.40;97.16;99760.09;106096;1257;60521;-75
2024/02/22 08:11:32;;;;;;;29.30;21.10;;;;;;;5.45;96.83;99759.63;105941;1258;72655;-74
2024/02/22 08:14:00;;;;;;;31.80;22.60;;;;;;;5.46;97.46;99753.01;106030;1253;69572;-78
2024/02/22 08:16:27;;;;;;;30.20;24.10;;;;;;;5.46;96.50;99753.56;106108;1253;75013;-77
2024/02/22 08:18:55;;;;;;;27.70;22.70;;;;;;;5.48;97.28;99746.68;106169;1253;61512;-77
2024/02/22 08:21:23;;;;;;;30.40;22.70;;;;;;;5.58;97.15;99749.85;107699;1252;60335;-74
2024/02/22 08:23:55;;;;;;;35.40;24.60;;;;;;;5.67;96.66;99748.18;108727;1253;73941;-73
2024/02/22 08:26:22;;;;;;;31.50;23.00;;;;;;;5.72;97.36;99747.33;106915;1257;70436;-74
2024/02/22 08:28:50;;;;;;;30.30;22.90;;;;;;;5.84;95.01;99748.09;105938;1253;71191;-74
2024/02/22 08:31:18;;;;;;;31.30;24.40;;;;;;;5.95;95.69;99744.66;106064;1256;60512;-76
2024/02/22 08:33:47;;;;;;;35.90;24.30;;;;;;;6.00;93.95;99749.49;105751;1253;60500;-75
2024/02/22 08:36:16;;;;;;;33.00;24.00;;;;;;;6.02;94.62;99741.23;105987;1257;73044;-75
2024/02/22 08:38:43;;;;;;;30.80;24.00;;;;;;;6.15;95.41;99736.56;105651;1253;71576;-75
2024/02/22 08:41:11;;;;;;;30.40;24.80;;;;;;;6.29;95.38;99741.96;105923;1253;71818;-76
2024/02/22 08:43:41;;;;;;;30.90;25.70;;;;;;;6.37;94.45;99735.44;105996;1253;59460;-78
2024/02/22 08:46:08;;;;;;;35.00;26.30;;;;;;;6.42;93.77;99730.15;106144;1253;60510;-75
2024/02/22 08:48:36;;;;;;;31.60;24.40;;;;;;;6.54;93.93;99729.60;106286;1257;73611;-75
2024/02/22 08:51:03;;;;;;;31.00;25.20;;;;;;;6.71;94.56;99722.45;107122;1252;71492;-76
2024/02/22 08:53:31;;;;;;;32.80;25.30;;;;;;;6.81;95.64;99725.82;107666;1253;71450;-76
2024/02/22 08:55:59;;;;;;;33.60;26.90;;;;;;;6.88;93.51;99724.63;106531;1256;60415;-77
2024/02/22 08:58:29;;;;;;;30.70;23.80;;;;;;;6.94;94.25;99720.44;105810;1253;61146;-77
2024/02/22 09:00:56;;;;;;;31.80;25.10;;;;;;;7.02;91.76;99727.38;105883;1259;73903;-73
2024/02/22 09:03:26;;;;;;;31.10;24.40;;;;;;;7.09;91.54;99720.90;105931;1258;69261;-74
2024/02/22 09:05:54;;;;;;;32.50;24.80;;;;;;;7.10;91.79;99722.41;106136;1255;74136;-76
2024/02/22 09:08:21;;;;;;;31.90;24.20;;;;;;;7.16;94.56;99714.30;106041;1259;63958;-76
2024/02/22 09:10:49;;;;;;;30.80;25.00;;;;;;;7.33;92.25;99720.45;105986;1254;60529;-77
2024/02/22 09:13:24;;;;;;;35.80;25.50;;;;;;;7.49;93.91;99715.71;105852;1258;73929;-79
2024/02/22 09:16:09;;;;;;;34.00;26.60;;;;;;;7.66;93.58;99710.52;106597;1253;71087;-77
2024/02/22 09:18:36;;;;;;;32.90;26.30;;;;;;;7.79;91.28;99713.80;107348;1253;71627;-76
2024/02/22 09:21:04;;;;;;;35.90;25.70;;;;;;;7.97;88.82;99707.67;108425;1253;62650;-75
2024/02/22 09:23:32;;;;;;;31.00;25.90;;;;;;;8.15;89.39;99708.86;107935;1256;61030;-74
2024/02/22 09:26:00;;;;;;;33.50;25.90;;;;;;;8.25;85.68;99708.90;106033;1259;72701;-76
2024/02/22 09:28:27;;;;;;;35.90;28.10;;;;;;;8.26;83.76;99712.21;105966;1253;69174;-76
2024/02/22 09:30:56;;;;;;;32.70;25.70;;;;;;;8.33;87.35;99706.73;106020;1257;71508;-75
2024/02/22 09:33:23;;;;;;;30.70;25.30;;;;;;;8.54;87.24;99703.73;106069;1253;62223;-76
2024/02/22 09:35:51;;;;;;;32.70;24.60;;;;;;;8.81;85.38;99702.38;105996;1256;60439;-79
2024/02/22 09:38:19;;;;;;;29.80;24.60;;;;;;;9.06;88.31;99698.91;105989;1253;73058;-77
2024/02/22 09:40:46;;;;;;;33.10;25.80;;;;;;;9.29;86.00;99696.21;105902;1258;69811;-77
2024/02/22 09:43:17;;;;;;;33.90;26.60;;;;;;;9.47;87.21;99693.09;105768;1258;71527;-76
2024/02/22 09:45:45;;;;;;;36.30;26.20;;;;;;;9.62;87.05;99691.83;105913;1255;60382;-75
2024/02/22 09:48:12;;;;;;;30.30;25.70;;;;;;;9.89;87.02;99688.63;105925;1257;60439;-77
2024/02/22 09:50:40;;;;;;;28.00;23.80;;;;;;;10.40;85.81;99681.40;106179;1253;76256;-77
2024/02/22 09:53:08;;;;;;;28.10;23.60;;;;;;;11.05;83.31;99684.58;107865;1252;68701;-76
2024/02/22 09:55:35;;;;;;;32.50;25.50;;;;;;;11.64;79.15;99677.19;107214;1259;71029;-76
2024/02/22 09:58:03;;;;;;;36.40;25.90;;;;;;;12.20;83.88;99671.37;107718;1253;62267;-76
2024/02/22 10:00:31;;;;;;;31.10;26.40;;;;;;;12.78;82.44;99672.90;107094;1253;60441;-80
2024/02/22 10:02:58;;;;;;;27.60;24.60;;;;;;;13.32;76.98;99669.69;107000;1253;72003;-79
2024/02/22 10:05:36;;;;;;;29.00;25.90;;;;;;;13.65;71.74;99659.79;106486;1253;69991;-78
2024/02/22 10:08:17;;;;;;;28.40;25.30;;;;;;;14.01;73.58;99654.05;105956;1253;72803;-81
2024/02/22 10:10:47;;;;;;;28.70;25.60;;;;;;;14.36;74.98;99647.50;106165;1253;60553;-78
2024/02/22 10:13:19;;;;;;;28.10;25.10;;;;;;;14.48;71.43;99654.37;106187;1253;60531;-78
2024/02/22 10:15:49;;;;;;;30.50;25.30;;;;;;;14.26;70.06;99656.14;106342;1257;74289;-78
2024/02/22 10:18:27;;;;;;;28.20;25.20;;;;;;;13.78;70.55;99657.67;108331;1253;69457;-81
2024/02/22 10:20:56;;;;;;;28.80;25.10;;;;;;;13.23;70.38;99651.73;108698;1252;71475;-77
2024/02/22 10:23:23;;;;;;;28.30;23.30;;;;;;;12.80;69.19;99659.71;109303;1253;59082;-83
2024/02/22 10:26:01;;;;;;;29.90;25.00;;;;;;;12.25;67.50;99650.31;108385;1258;61217;-78
2024/02/22 10:28:30;;;;;;;29.10;24.80;;;;;;;11.74;71.11;99648.62;106406;1254;74181;-78
2024/02/22 10:31:02;;;;;;;29.80;25.40;;;;;;;11.49;77.29;99647.96;106071;1253;70748;-76
2024/02/22 10:33:30;;;;;;;29.60;25.80;;;;;;;11.38;73.70;99652.34;106029;1253;72746;-76
2024/02/22 10:35:59;;;;;;;30.20;25.30;;;;;;;11.20;70.65;99651.92;105966;1253;60989;-79
2024/02/22 10:38:28;;;;;;;28.80;24.60;;;;;;;11.00;73.42;99643.70;105830;1253;60971;-80
2024/02/22 10:40:55;;;;;;;30.10;25.00;;;;;;;10.95;76.49;99637.41;105846;1258;71934;-78
2024/02/22 10:43:23;;;;;;;31.60;25.40;;;;;;;11.03;77.09;99641.14;105834;1253;70604;-77
2024/02/22 10:45:52;;;;;;;33.40;26.20;;;;;;;11.08;77.00;99646.57;105876;1257;71713;-77
2024/02/22 10:48:20;;;;;;;30.30;24.60;;;;;;;11.09;73.80;99648.18;105900;1253;61102;-77
2024/02/22 10:50:48;;;;;;;30.00;25.40;;;;;;;11.00;71.47;99638.75;105870;1252;62217;-78
2024/02/22 10:53:16;;;;;;;30.30;25.80;;;;;;;10.80;72.80;99629.17;105848;1253;75250;-78
2024/02/22 10:55:48;;;;;;;28.90;25.50;;;;;;;10.64;75.87;99633.18;105638;1253;72913;-77
2024/02/22 10:58:18;;;;;;;32.00;26.50;;;;;;;10.60;78.05;99630.84;106079;1253;72503;-75
2024/02/22 11:00:47;;;;;;;29.00;24.40;;;;;;;10.62;78.24;99617.85;106010;1255;62240;-77
2024/02/22 11:03:16;;;;;;;28.20;23.90;;;;;;;10.61;75.01;99625.27;105966;1253;60598;-77
2024/02/22 11:05:47;;;;;;;29.70;24.90;;;;;;;10.50;74.90;99618.65;105995;1257;76109;-76
2024/02/22 11:08:21;;;;;;;29.60;24.10;;;;;;;10.47;78.28;99614.41;106172;1257;69458;-76
2024/02/22 11:11:03;;;;;;;28.40;23.70;;;;;;;10.63;76.40;99620.59;105989;1259;71831;-74
2024/02/22 11:13:34;;;;;;;30.10;25.30;;;;;;;10.82;73.72;99621.61;105962;1259;60422;-73
2024/02/22 11:16:13;;;;;;;34.90;24.90;;;;;;;10.89;74.25;99613.39;106131;1257;60460;-76
2024/02/22 11:18:40;;;;;;;28.10;24.00;;;;;;;10.92;74.78;99615.61;106718;1253;72545;-73
2024/02/22 11:21:12;;;;;;;30.30;25.20;;;;;;;10.88;73.73;99608.38;106104;1259;69341;-73